Time;durP1;ratioP1;P1;durP2;ratioP2;P2;SDS_P1;SDS_P2;PMS_P1;PMS_P2;Temp;Humidity;BMP_temperature;BMP_pressure;BME280_temperature;BME280_humidity;BME280_pressure;Samples;Min_cycle;Max_cycle;Signal;HPM_P1;HPM_P2
2022/10/14 00:01:08;;;;;;;46.38;18.27;;;12.80;99.90;;;;;;5055931;28;20048;-74
2022/10/14 00:03:35;;;;;;;46.90;20.10;;;12.80;99.90;;;;;;5080366;28;20045;-72
2022/10/14 00:06:11;;;;;;;45.92;19.42;;;12.80;99.90;;;;;;5052785;28;20044;-71
2022/10/14 00:08:37;;;;;;;53.20;20.77;;;12.70;99.90;;;;;;5053561;28;20118;-73
2022/10/14 00:11:03;;;;;;;;;;;12.70;99.90;;;;;;5052953;28;20037;-75
2022/10/14 00:13:29;;;;;;;48.83;19.92;;;12.70;99.90;;;;;;5053762;28;20414;-72
2022/10/14 00:15:55;;;;;;;42.72;18.77;;;12.70;99.90;;;;;;5035348;28;20175;-72
2022/10/14 00:18:20;;;;;;;48.00;20.23;;;12.70;99.90;;;;;;5035295;28;20390;-72
2022/10/14 00:20:57;;;;;;;42.80;17.58;;;12.70;99.90;;;;;;5035976;28;20091;-72
2022/10/14 00:23:24;;;;;;;42.53;18.77;;;12.60;99.90;;;;;;5045701;28;20036;-72
2022/10/14 00:25:50;;;;;;;46.63;18.58;;;12.70;99.90;;;;;;5053798;28;20102;-75
2022/10/14 00:28:15;;;;;;;;;;;12.70;99.90;;;;;;5035096;28;20140;-72
2022/10/14 00:30:41;;;;;;;44.53;17.27;;;12.70;99.90;;;;;;5053511;28;20420;-73
2022/10/14 00:33:07;;;;;;;47.22;19.10;;;12.70;99.90;;;;;;5051640;28;20064;-74
2022/10/14 00:35:32;;;;;;;45.03;18.95;;;12.70;99.90;;;;;;5069793;28;20071;-71
2022/10/14 00:37:58;;;;;;;45.63;19.52;;;12.70;99.90;;;;;;5055153;28;20082;-71
2022/10/14 00:40:25;;;;;;;45.92;18.23;;;12.60;99.90;;;;;;5072365;28;20045;-71
2022/10/14 00:42:51;;;;;;;42.42;17.10;;;12.60;99.90;;;;;;5088531;28;20036;-75
2022/10/14 00:45:22;;;;;;;;;;;12.60;99.90;;;;;;5073303;28;20090;-72
2022/10/14 00:47:50;;;;;;;42.95;16.60;;;12.60;99.90;;;;;;5072222;28;20319;-71
2022/10/14 00:50:18;;;;;;;40.55;17.60;;;12.60;99.90;;;;;;5065847;28;20053;-72
2022/10/14 00:52:44;;;;;;;44.95;17.52;;;12.60;99.90;;;;;;5053221;28;20044;-72
2022/10/14 00:55:16;;;;;;;38.22;16.17;;;12.60;99.90;;;;;;5051541;28;20072;-72
2022/10/14 00:57:43;;;;;;;40.75;17.25;;;12.50;99.90;;;;;;5052548;28;20505;-72
2022/10/14 01:00:15;;;;;;;40.53;16.02;;;12.50;99.90;;;;;;5052040;28;20505;-72
2022/10/14 01:02:41;;;;;;;42.95;16.50;;;12.40;99.90;;;;;;5051970;28;20047;-74
2022/10/14 01:05:08;;;;;;;;;;;12.40;99.90;;;;;;5034844;28;20124;-72
2022/10/14 01:07:55;;;;;;;37.72;16.27;;;12.40;99.90;;;;;;5068389;28;20426;-72
2022/10/14 01:10:37;;;;;;;35.25;15.48;;;12.30;99.90;;;;;;5060506;28;20053;-72
2022/10/14 01:13:17;;;;;;;38.35;14.68;;;12.30;99.90;;;;;;5034328;28;20091;-72
2022/10/14 01:16:09;;;;;;;39.15;14.07;;;12.20;99.90;;;;;;5072940;28;20048;-73
2022/10/14 01:18:46;;;;;;;39.70;15.15;;;12.10;99.90;;;;;;5072622;28;20064;-72
2022/10/14 01:21:25;;;;;;;35.13;15.60;;;12.00;99.90;;;;;;5037351;28;20071;-72
2022/10/14 01:24:05;;;;;;;41.25;16.08;;;11.90;99.90;;;;;;5070004;28;20052;-72
2022/10/14 01:27:01;;;;;;;38.85;14.02;;;11.90;99.90;;;;;;5051851;28;20501;-72
2022/10/14 01:30:03;;;;;;;39.80;15.95;;;11.80;99.90;;;;;;5034688;28;20080;-72
2022/10/14 01:32:32;;;;;;;43.08;16.27;;;11.70;99.90;;;;;;5051679;28;20465;-72
2022/10/14 01:35:22;;;;;;;40.85;15.90;;;11.70;99.90;;;;;;5065931;28;20044;-75
2022/10/14 01:37:57;;;;;;;41.58;14.82;;;11.70;99.90;;;;;;5072102;28;20141;-72
2022/10/14 01:40:42;;;;;;;40.15;14.95;;;11.70;99.90;;;;;;5070989;28;20283;-73
2022/10/14 01:43:12;;;;;;;38.08;14.15;;;11.70;99.90;;;;;;5053353;28;20119;-71
2022/10/14 01:45:40;;;;;;;41.58;14.52;;;11.70;99.90;;;;;;5072094;28;20036;-72
2022/10/14 01:48:07;;;;;;;38.00;14.52;;;11.70;99.90;;;;;;5070315;28;20060;-73
2022/10/14 01:50:36;;;;;;;39.53;15.35;;;11.70;99.90;;;;;;5071512;28;20479;-72
2022/10/14 01:53:12;;;;;;;38.80;13.75;;;11.70;99.90;;;;;;5070994;28;20045;-75
2022/10/14 01:55:46;;;;;;;36.43;12.40;;;11.70;99.90;;;;;;5070450;28;20504;-71
2022/10/14 01:58:14;;;;;;;43.65;13.95;;;11.70;99.90;;;;;;5071153;28;20051;-72
2022/10/14 02:00:40;;;;;;;76.30;14.65;;;11.70;99.90;;;;;;5049041;28;20048;-72
2022/10/14 02:03:05;;;;;;;220.18;20.92;;;11.70;99.90;;;;;;5050272;28;20098;-72
2022/10/14 02:05:37;;;;;;;230.25;22.55;;;11.70;99.90;;;;;;5051559;28;20079;-74
2022/10/14 02:08:27;;;;;;;176.00;17.45;;;11.70;99.90;;;;;;5051113;28;20040;-76
2022/10/14 02:10:55;;;;;;;107.07;15.27;;;11.70;99.90;;;;;;5071220;28;20084;-71
2022/10/14 02:13:42;;;;;;;190.05;16.52;;;11.60;99.90;;;;;;5070824;28;20098;-72
2022/10/14 02:16:32;;;;;;;131.95;14.63;;;11.50;99.90;;;;;;5049975;28;20045;-76
2022/10/14 02:19:07;;;;;;;150.38;14.27;;;11.50;99.90;;;;;;5051461;28;20393;-75
2022/10/14 02:21:43;;;;;;;151.55;14.73;;;11.40;99.90;;;;;;5033643;28;20116;-72
2022/10/14 02:24:32;;;;;;;151.10;13.70;;;11.40;99.90;;;;;;5016290;28;20138;-74
2022/10/14 02:27:03;;;;;;;133.75;12.95;;;11.30;99.90;;;;;;5067176;28;20123;-72
2022/10/14 02:29:30;;;;;;;142.82;15.15;;;11.30;99.90;;;;;;5058224;28;20114;-72
2022/10/14 02:31:57;;;;;;;89.50;12.38;;;11.30;99.90;;;;;;5050029;28;20035;-73
2022/10/14 02:34:25;;;;;;;95.22;13.10;;;11.30;99.90;;;;;;5041674;28;20041;-72
2022/10/14 02:36:53;;;;;;;96.72;12.68;;;11.20;99.90;;;;;;5050831;28;20056;-73
2022/10/14 02:39:31;;;;;;;133.85;14.02;;;11.20;99.90;;;;;;5049318;28;20040;-72
2022/10/14 02:41:57;;;;;;;198.13;13.45;;;11.20;99.90;;;;;;5033220;28;20581;-71
2022/10/14 02:44:23;;;;;;;103.25;10.93;;;11.20;99.90;;;;;;5050391;28;20040;-72
2022/10/14 02:46:48;;;;;;;123.43;15.05;;;11.20;99.90;;;;;;5049573;28;20064;-72
2022/10/14 02:49:15;;;;;;;108.28;12.45;;;11.20;99.90;;;;;;5050289;28;20133;-71
2022/10/14 02:51:41;;;;;;;111.75;13.32;;;11.10;99.90;;;;;;5051101;28;20056;-72
2022/10/14 02:54:07;;;;;;;130.48;11.05;;;11.10;99.90;;;;;;5049780;28;20061;-75
2022/10/14 02:56:32;;;;;;;172.23;14.48;;;11.10;99.90;;;;;;5061895;28;20043;-72
2022/10/14 02:58:58;;;;;;;147.98;13.50;;;11.10;99.90;;;;;;5070913;28;20102;-71
2022/10/14 03:01:24;;;;;;;123.40;13.18;;;11.10;99.90;;;;;;5051405;28;20355;-71
2022/10/14 03:03:49;;;;;;;145.70;13.52;;;11.10;99.90;;;;;;5070456;28;20048;-71
2022/10/14 03:06:15;;;;;;;77.85;9.52;;;11.10;99.90;;;;;;5055596;28;20041;-71
2022/10/14 03:08:40;;;;;;;179.85;13.95;;;11.10;99.90;;;;;;5049451;28;20049;-72
2022/10/14 03:11:06;;;;;;;175.20;15.63;;;11.10;99.90;;;;;;5061491;28;20105;-75
2022/10/14 03:13:32;;;;;;;158.32;17.42;;;11.10;99.90;;;;;;5032938;28;20508;-71
2022/10/14 03:15:58;;;;;;;196.32;17.52;;;11.10;99.90;;;;;;5050333;28;20127;-75
2022/10/14 03:18:23;;;;;;;102.43;13.50;;;11.10;99.90;;;;;;5051193;28;20045;-71
2022/10/14 03:20:49;;;;;;;130.80;14.57;;;11.10;99.90;;;;;;5035987;28;20056;-71
2022/10/14 03:23:15;;;;;;;186.32;20.55;;;11.10;99.90;;;;;;5069473;28;20490;-72
2022/10/14 03:25:43;;;;;;;98.28;16.42;;;11.10;99.90;;;;;;5052556;28;20665;-71
2022/10/14 03:28:08;;;;;;;84.30;16.10;;;11.10;99.90;;;;;;5069974;28;20094;-75
2022/10/14 03:30:34;;;;;;;87.60;16.05;;;11.10;99.90;;;;;;5051750;28;20045;-73
2022/10/14 03:33:00;;;;;;;76.50;15.65;;;11.10;99.90;;;;;;5067513;28;20049;-72
2022/10/14 03:35:25;;;;;;;85.45;16.13;;;11.10;99.90;;;;;;5052957;28;20110;-71
2022/10/14 03:37:53;;;;;;;64.35;16.45;;;11.20;99.90;;;;;;5070377;28;20044;-75
2022/10/14 03:40:19;;;;;;;53.85;16.25;;;11.30;99.90;;;;;;5050812;28;20385;-72
2022/10/14 03:42:45;;;;;;;;;;;11.20;99.90;;;;;;5070607;28;20040;-71
2022/10/14 03:45:11;;;;;;;57.30;16.92;;;11.30;99.90;;;;;;5069766;28;19924;-76
2022/10/14 03:47:36;;;;;;;56.60;17.45;;;11.30;99.90;;;;;;5041395;28;20106;-72
2022/10/14 03:50:03;;;;;;;53.45;16.98;;;11.30;99.90;;;;;;5049733;28;20417;-72
2022/10/14 03:52:30;;;;;;;55.65;16.67;;;11.30;99.90;;;;;;5049667;28;20493;-71
2022/10/14 03:54:55;;;;;;;51.67;15.55;;;11.40;99.90;;;;;;5049524;28;20683;-73
2022/10/14 03:57:21;;;;;;;57.55;17.35;;;11.40;99.90;;;;;;5034711;28;20139;-72
2022/10/14 03:59:47;;;;;;;54.38;18.05;;;11.40;99.90;;;;;;5052503;28;20040;-71
2022/10/14 04:02:12;;;;;;;58.53;16.65;;;11.40;99.90;;;;;;5068692;28;20043;-75
2022/10/14 04:04:38;;;;;;;44.67;15.77;;;11.40;99.90;;;;;;5069885;28;20098;-72
2022/10/14 04:07:04;;;;;;;47.58;15.75;;;11.40;99.90;;;;;;5052487;28;20056;-71
2022/10/14 04:09:29;;;;;;;53.60;15.75;;;11.40;99.90;;;;;;5050739;28;20600;-72
2022/10/14 04:11:57;;;;;;;53.25;16.60;;;11.50;99.90;;;;;;5069918;28;20393;-71
2022/10/14 04:14:25;;;;;;;52.58;16.08;;;11.50;99.90;;;;;;5069527;28;20063;-72
2022/10/14 04:16:51;;;;;;;46.60;16.05;;;11.50;99.90;;;;;;5070178;28;20074;-72
2022/10/14 04:19:17;;;;;;;47.08;14.85;;;11.50;99.90;;;;;;5071885;28;20043;-71
2022/10/14 04:21:43;;;;;;;;;;;11.50;99.90;;;;;;5074164;28;20067;-71
2022/10/14 04:24:09;;;;;;;43.35;14.80;;;11.50;99.90;;;;;;5068764;28;19917;-75
2022/10/14 04:26:34;;;;;;;54.95;15.63;;;11.50;99.90;;;;;;5052673;28;20076;-71
2022/10/14 04:29:00;;;;;;;51.38;14.88;;;11.50;99.90;;;;;;5053678;28;20116;-71
2022/10/14 04:31:26;;;;;;;42.70;14.57;;;11.50;99.90;;;;;;5051901;28;20795;-71
2022/10/14 04:33:51;;;;;;;39.05;14.60;;;11.50;99.90;;;;;;5060473;28;20127;-72
2022/10/14 04:36:17;;;;;;;43.88;14.80;;;11.50;99.90;;;;;;5072539;28;20082;-72
2022/10/14 04:38:43;;;;;;;45.70;15.35;;;11.50;99.90;;;;;;5055297;28;20037;-71
2022/10/14 04:41:08;;;;;;;43.78;15.63;;;11.50;99.90;;;;;;5060203;28;20041;-71
2022/10/14 04:43:34;;;;;;;50.70;15.13;;;11.60;99.90;;;;;;5072826;28;20162;-71
2022/10/14 04:46:00;;;;;;;46.78;14.43;;;11.60;99.90;;;;;;5064123;28;20051;-75
2022/10/14 04:48:25;;;;;;;47.00;14.50;;;11.60;99.90;;;;;;5034544;28;20044;-73
2022/10/14 04:50:52;;;;;;;40.15;13.48;;;11.50;99.90;;;;;;5052612;28;20063;-71
2022/10/14 04:53:19;;;;;;;38.92;12.88;;;11.50;99.90;;;;;;5050749;28;20045;-72
2022/10/14 04:55:45;;;;;;;39.20;14.57;;;11.60;99.90;;;;;;5034989;28;20049;-71
2022/10/14 04:58:11;;;;;;;;;;;11.50;99.90;;;;;;5063216;28;20076;-74
2022/10/14 05:00:37;;;;;;;34.67;11.80;;;11.50;99.90;;;;;;5072467;28;20013;-71
2022/10/14 05:03:03;;;;;;;41.88;13.88;;;11.50;99.90;;;;;;5036582;28;20041;-70
2022/10/14 05:05:29;;;;;;;40.78;14.18;;;11.50;99.90;;;;;;5071020;28;20040;-71
2022/10/14 05:07:55;;;;;;;32.08;12.00;;;11.50;99.90;;;;;;5073151;28;20048;-72
2022/10/14 05:10:21;;;;;;;33.47;12.80;;;11.50;99.90;;;;;;5062598;28;20045;-71
2022/10/14 05:12:47;;;;;;;;;;;11.50;99.90;;;;;;5053010;28;20045;-71
2022/10/14 05:15:13;;;;;;;35.90;13.73;;;11.50;99.90;;;;;;5051749;28;19927;-75
2022/10/14 05:17:38;;;;;;;35.53;12.05;;;11.50;99.90;;;;;;5033305;28;20051;-71
2022/10/14 05:20:05;;;;;;;35.13;12.30;;;11.60;99.90;;;;;;5052418;28;20044;-71
2022/10/14 05:22:31;;;;;;;28.08;11.38;;;11.50;99.90;;;;;;5061679;28;20616;-71
2022/10/14 05:24:57;;;;;;;25.33;9.52;;;11.50;99.90;;;;;;5051681;28;20048;-71
2022/10/14 05:27:22;;;;;;;27.85;10.45;;;11.50;99.90;;;;;;5037452;28;20474;-71
2022/10/14 05:29:48;;;;;;;34.13;11.00;;;11.50;99.90;;;;;;5071577;28;20071;-71
2022/10/14 05:32:14;;;;;;;34.60;11.05;;;11.50;99.90;;;;;;5071504;28;20376;-72
2022/10/14 05:34:40;;;;;;;26.60;9.15;;;11.40;99.90;;;;;;5071145;28;20066;-73
2022/10/14 05:37:06;;;;;;;26.27;9.82;;;11.30;99.90;;;;;;5053905;28;20052;-71
2022/10/14 05:39:32;;;;;;;33.03;11.18;;;11.30;99.90;;;;;;5070265;28;20476;-72
2022/10/14 05:41:57;;;;;;;29.38;8.95;;;11.20;99.90;;;;;;5054306;28;20119;-72
2022/10/14 05:44:23;;;;;;;29.77;10.57;;;11.20;99.90;;;;;;5071534;28;20036;-72
2022/10/14 05:46:49;;;;;;;31.58;10.40;;;11.20;99.90;;;;;;5051955;28;20076;-74
2022/10/14 05:49:15;;;;;;;32.35;11.45;;;11.10;99.90;;;;;;5071802;28;20094;-72
2022/10/14 05:51:40;;;;;;;34.55;11.52;;;11.10;99.90;;;;;;5071114;28;20060;-72
2022/10/14 05:54:06;;;;;;;37.92;11.27;;;11.10;99.90;;;;;;5067437;28;20040;-71
2022/10/14 05:56:32;;;;;;;28.85;11.43;;;11.10;99.90;;;;;;5050651;28;20453;-71
2022/10/14 05:58:57;;;;;;;36.92;12.85;;;11.20;99.90;;;;;;5067492;28;20539;-73
2022/10/14 06:01:23;;;;;;;32.42;11.23;;;11.10;99.90;;;;;;5069920;28;20037;-73
2022/10/14 06:03:50;;;;;;;31.27;10.70;;;11.10;99.90;;;;;;5071339;28;20149;-71
2022/10/14 06:06:17;;;;;;;25.90;9.05;;;11.20;99.90;;;;;;5080568;28;20048;-71
2022/10/14 06:08:43;;;;;;;33.80;10.05;;;11.20;99.90;;;;;;5068495;28;20376;-71
2022/10/14 06:11:09;;;;;;;29.08;9.63;;;11.20;99.90;;;;;;5057666;28;20045;-72
2022/10/14 06:13:35;;;;;;;32.80;10.55;;;11.20;99.90;;;;;;5050998;28;20090;-71
2022/10/14 06:16:05;;;;;;;29.90;9.00;;;11.20;99.90;;;;;;5066273;28;20044;-74
2022/10/14 06:18:31;;;;;;;28.23;9.35;;;11.20;99.90;;;;;;5065698;28;20049;-71
2022/10/14 06:20:57;;;;;;;28.10;9.23;;;11.20;99.90;;;;;;5050910;28;20614;-71
2022/10/14 06:23:23;;;;;;;28.17;9.90;;;11.20;99.90;;;;;;5050426;28;20059;-75
2022/10/14 06:25:49;;;;;;;28.00;10.02;;;11.20;99.90;;;;;;5045439;28;20055;-71
2022/10/14 06:28:14;;;;;;;30.15;10.43;;;11.20;99.90;;;;;;5071030;28;20058;-72
2022/10/14 06:30:40;;;;;;;34.15;10.32;;;11.20;99.90;;;;;;5052811;28;20056;-76
2022/10/14 06:33:06;;;;;;;33.38;11.05;;;11.20;99.90;;;;;;5061990;28;20043;-76
2022/10/14 06:35:31;;;;;;;30.17;10.60;;;11.20;99.90;;;;;;5032444;28;20377;-74
2022/10/14 06:37:57;;;;;;;31.60;10.05;;;11.20;99.90;;;;;;5059176;28;20070;-71
2022/10/14 06:40:23;;;;;;;30.98;9.48;;;11.20;99.90;;;;;;5051595;28;20695;-77
2022/10/14 06:42:49;;;;;;;27.75;9.57;;;11.20;99.90;;;;;;5033159;28;20068;-70
2022/10/14 06:45:15;;;;;;;29.60;10.73;;;11.20;99.90;;;;;;5053864;28;20040;-71
2022/10/14 06:47:40;;;;;;;29.38;10.45;;;11.20;99.90;;;;;;5051594;28;20481;-73
2022/10/14 06:50:07;;;;;;;27.92;10.00;;;11.20;99.90;;;;;;5070269;28;20044;-72
2022/10/14 06:52:32;;;;;;;;;;;11.30;99.90;;;;;;5070804;28;20048;-72
2022/10/14 06:54:58;;;;;;;28.08;9.93;;;11.30;99.90;;;;;;5068747;28;19946;-72
2022/10/14 06:57:24;;;;;;;31.52;10.55;;;11.30;99.90;;;;;;5051261;28;20117;-77
2022/10/14 06:59:49;;;;;;;32.83;11.45;;;11.40;99.90;;;;;;5050693;28;20225;-72
2022/10/14 07:02:15;;;;;;;35.47;10.27;;;11.40;99.90;;;;;;5049934;28;20041;-72
2022/10/14 07:04:41;;;;;;;31.40;10.38;;;11.50;99.90;;;;;;5038075;28;20151;-73
2022/10/14 07:07:07;;;;;;;33.25;10.75;;;11.50;99.90;;;;;;5070742;28;20044;-73
2022/10/14 07:09:33;;;;;;;28.83;10.07;;;11.60;99.90;;;;;;5069115;28;20044;-72
2022/10/14 07:11:58;;;;;;;28.63;10.77;;;11.60;99.90;;;;;;5070478;28;20044;-72
2022/10/14 07:14:24;;;;;;;33.40;11.27;;;11.60;99.90;;;;;;5052185;28;20104;-77
2022/10/14 07:16:51;;;;;;;31.77;11.07;;;11.70;99.90;;;;;;5033362;28;20056;-74
2022/10/14 07:19:17;;;;;;;30.20;10.40;;;11.70;99.90;;;;;;5034179;28;20052;-72
2022/10/14 07:21:45;;;;;;;30.58;11.00;;;11.70;99.90;;;;;;5069929;28;20045;-71
2022/10/14 07:24:11;;;;;;;29.45;11.20;;;11.70;99.90;;;;;;5085380;28;20047;-72
2022/10/14 07:26:37;;;;;;;28.50;12.05;;;11.80;99.90;;;;;;5051351;28;20714;-72
2022/10/14 07:29:04;;;;;;;31.42;9.77;;;11.80;99.90;;;;;;5051976;28;20041;-75
2022/10/14 07:31:30;;;;;;;27.42;10.02;;;11.90;99.90;;;;;;5068768;28;20040;-72
2022/10/14 07:33:56;;;;;;;33.13;11.65;;;11.90;99.90;;;;;;5070197;28;20492;-72
2022/10/14 07:36:22;;;;;;;30.80;10.52;;;11.90;99.90;;;;;;5066406;28;20068;-75
2022/10/14 07:38:48;;;;;;;27.25;9.77;;;11.90;99.90;;;;;;5048446;28;20333;-72
2022/10/14 07:41:19;;;;;;;27.13;9.43;;;11.90;99.90;;;;;;5062241;28;20499;-73
2022/10/14 07:43:47;;;;;;;27.98;10.50;;;12.00;99.90;;;;;;5058887;28;20729;-74
2022/10/14 07:46:15;;;;;;;28.08;9.88;;;12.00;99.90;;;;;;5058203;28;20094;-74
2022/10/14 07:48:40;;;;;;;26.67;10.38;;;11.90;99.90;;;;;;5080685;28;20040;-75
2022/10/14 07:51:07;;;;;;;31.00;9.48;;;12.00;99.90;;;;;;5067056;28;20069;-75
2022/10/14 07:53:33;;;;;;;28.85;10.07;;;12.00;99.90;;;;;;5062854;28;20040;-80
2022/10/14 07:55:59;;;;;;;31.98;11.88;;;12.00;99.90;;;;;;5071916;28;20504;-79
2022/10/14 07:58:28;;;;;;;29.38;9.70;;;12.10;99.90;;;;;;5064230;28;20040;-74
2022/10/14 08:00:54;;;;;;;30.52;10.27;;;12.10;99.90;;;;;;5059145;28;20408;-74
2022/10/14 08:03:21;;;;;;;39.53;12.40;;;12.10;99.90;;;;;;5092134;28;20057;-74
2022/10/14 08:05:49;;;;;;;31.52;11.95;;;12.20;99.90;;;;;;5071527;28;20162;-74
2022/10/14 08:08:16;;;;;;;33.85;12.82;;;12.20;99.90;;;;;;5074895;28;20032;-75
2022/10/14 08:10:42;;;;;;;32.85;11.80;;;12.20;99.90;;;;;;5059799;28;21330;-74
2022/10/14 08:13:08;;;;;;;;;;;12.20;99.90;;;;;;5051640;28;20048;-75
2022/10/14 08:15:39;;;;;;;38.03;11.68;;;12.20;99.90;;;;;;5064757;28;19946;-79
2022/10/14 08:18:10;;;;;;;39.83;13.55;;;12.30;99.90;;;;;;5056697;28;20382;-74
2022/10/14 08:20:36;;;;;;;39.13;12.70;;;12.30;99.90;;;;;;5038280;28;20523;-74
2022/10/14 08:23:02;;;;;;;36.13;13.13;;;12.40;99.90;;;;;;5066992;28;20126;-77
2022/10/14 08:25:28;;;;;;;;;;;12.40;99.90;;;;;;5082881;28;20111;-76
2022/10/14 08:27:56;;;;;;;44.50;14.05;;;12.30;99.90;;;;;;5051421;28;20056;-76
2022/10/14 08:30:22;;;;;;;45.58;14.40;;;12.40;99.90;;;;;;5049794;28;20061;-76
2022/10/14 08:32:48;;;;;;;46.92;14.38;;;12.40;99.90;;;;;;5055536;28;20040;-73
2022/10/14 08:35:14;;;;;;;45.28;14.18;;;12.40;99.90;;;;;;5061123;28;20052;-77
2022/10/14 08:37:40;;;;;;;42.17;13.77;;;12.40;99.90;;;;;;5067741;28;20095;-74
2022/10/14 08:40:06;;;;;;;45.15;13.70;;;12.40;99.90;;;;;;5068586;28;20036;-75
2022/10/14 08:43:03;;;;;;;43.38;13.32;;;12.40;99.90;;;;;;5036376;28;20478;-79
2022/10/14 08:45:36;;;;;;;47.05;15.65;;;12.40;99.90;;;;;;5055306;28;20052;-74
2022/10/14 08:48:10;;;;;;;51.83;15.00;;;12.40;99.90;;;;;;5034224;28;20115;-78
2022/10/14 08:50:43;;;;;;;44.17;13.30;;;12.50;99.90;;;;;;5050575;28;20135;-79
2022/10/14 08:53:13;;;;;;;49.15;13.30;;;12.50;99.90;;;;;;5062101;28;20040;-77
2022/10/14 08:55:58;;;;;;;45.45;14.82;;;12.50;99.90;;;;;;5049754;28;20052;-78
2022/10/14 08:58:40;;;;;;;49.38;14.10;;;12.60;99.90;;;;;;5055867;28;20068;-75
2022/10/14 09:01:23;;;;;;;47.13;14.80;;;12.60;99.90;;;;;;5049529;28;20524;-77
2022/10/14 09:03:53;;;;;;;48.53;14.20;;;12.70;99.90;;;;;;5038140;28;20551;-75
2022/10/14 09:06:26;;;;;;;40.97;13.93;;;12.60;99.90;;;;;;5064020;28;20072;-75
2022/10/14 09:08:56;;;;;;;42.83;13.68;;;12.70;99.90;;;;;;5039765;28;20059;-75
2022/10/14 09:11:23;;;;;;;39.13;12.80;;;12.60;99.90;;;;;;5050895;28;20069;-74
2022/10/14 09:13:56;;;;;;;44.05;14.63;;;12.60;99.90;;;;;;5053823;28;20124;-75
2022/10/14 09:16:31;;;;;;;48.67;14.27;;;12.70;99.90;;;;;;5052002;28;20171;-73
2022/10/14 09:19:01;;;;;;;43.55;13.65;;;12.70;99.90;;;;;;5070301;28;20050;-73
2022/10/14 09:21:33;;;;;;;44.03;13.48;;;12.70;99.90;;;;;;5061151;28;20135;-74
2022/10/14 09:24:19;;;;;;;40.17;13.88;;;12.70;99.90;;;;;;5049034;28;20044;-75
2022/10/14 09:26:47;;;;;;;51.28;14.30;;;12.80;99.90;;;;;;5070383;28;20162;-75
2022/10/14 09:29:20;;;;;;;49.60;15.30;;;12.80;99.90;;;;;;5068278;28;20040;-71
2022/10/14 09:31:47;;;;;;;44.92;14.02;;;12.80;99.90;;;;;;5055332;28;20033;-73
2022/10/14 09:34:18;;;;;;;50.28;14.35;;;12.90;99.90;;;;;;5051146;28;20072;-72
2022/10/14 09:36:46;;;;;;;41.95;13.68;;;12.90;99.90;;;;;;5050822;28;20048;-74
2022/10/14 09:39:11;;;;;;;41.38;12.75;;;13.00;99.90;;;;;;5050728;28;20052;-72
2022/10/14 09:41:38;;;;;;;42.38;14.88;;;13.00;99.90;;;;;;5050578;28;20045;-76
2022/10/14 09:44:24;;;;;;;40.58;12.63;;;13.00;99.90;;;;;;5056093;28;20064;-73
2022/10/14 09:47:00;;;;;;;38.55;12.25;;;12.90;99.90;;;;;;5055358;28;20041;-76
2022/10/14 09:49:53;;;;;;;37.72;13.07;;;12.90;99.90;;;;;;5059389;28;20116;-77
2022/10/14 09:52:24;;;;;;;48.95;14.15;;;12.80;99.90;;;;;;5061041;28;20045;-72
2022/10/14 09:54:59;;;;;;;48.40;13.85;;;12.90;99.90;;;;;;5049596;28;20124;-71
2022/10/14 09:57:26;;;;;;;51.92;14.00;;;12.90;99.90;;;;;;5055879;28;20043;-71
2022/10/14 10:00:02;;;;;;;55.55;14.88;;;12.90;99.90;;;;;;5076402;28;20090;-71
2022/10/14 10:02:47;;;;;;;42.65;13.35;;;12.90;99.90;;;;;;5049758;28;20045;-71
2022/10/14 10:05:26;;;;;;;51.80;14.55;;;13.00;99.90;;;;;;5077068;28;20040;-71
2022/10/14 10:08:16;;;;;;;48.40;15.02;;;12.90;99.90;;;;;;5060911;28;20098;-71
2022/10/14 10:10:57;;;;;;;49.20;13.95;;;13.00;99.90;;;;;;5051907;28;20485;-75
2022/10/14 10:13:37;;;;;;;50.85;14.75;;;13.00;99.90;;;;;;5057189;28;20087;-74
2022/10/14 10:16:04;;;;;;;49.38;14.00;;;13.00;99.90;;;;;;5071625;28;20078;-78
2022/10/14 10:18:30;;;;;;;53.35;13.82;;;13.00;99.90;;;;;;5061418;28;20076;-73
2022/10/14 10:21:05;;;;;;;48.65;13.43;;;13.00;99.90;;;;;;5089431;28;20562;-75
2022/10/14 10:23:33;;;;;;;42.75;13.10;;;13.10;99.90;;;;;;5039976;28;20047;-74
2022/10/14 10:26:25;;;;;;;52.08;14.18;;;13.10;99.90;;;;;;5074826;28;20040;-73
2022/10/14 10:28:55;;;;;;;49.20;13.98;;;13.10;99.90;;;;;;5087260;28;20496;-78
2022/10/14 10:31:33;;;;;;;47.83;14.25;;;13.10;99.90;;;;;;5061827;28;20147;-73
2022/10/14 10:34:17;;;;;;;46.13;13.80;;;13.10;99.90;;;;;;5068297;28;20044;-73
2022/10/14 10:37:00;;;;;;;46.60;13.40;;;13.10;99.90;;;;;;5061768;28;20056;-78
2022/10/14 10:39:36;;;;;;;44.72;14.98;;;13.10;99.90;;;;;;5068673;28;20036;-73
2022/10/14 10:42:05;;;;;;;46.60;14.65;;;13.10;99.90;;;;;;5052569;28;20087;-77
2022/10/14 10:44:49;;;;;;;47.78;14.00;;;13.20;99.90;;;;;;5063891;28;20045;-74
2022/10/14 10:47:32;;;;;;;50.85;14.88;;;13.20;99.90;;;;;;5044681;28;20047;-75
2022/10/14 10:50:08;;;;;;;50.45;15.35;;;13.20;99.90;;;;;;5056373;28;20049;-75
2022/10/14 10:52:47;;;;;;;48.58;14.10;;;13.20;99.90;;;;;;5032028;28;20089;-75
2022/10/14 10:55:34;;;;;;;50.78;14.90;;;13.20;99.90;;;;;;5046870;28;20140;-72
2022/10/14 10:58:26;;;;;;;52.67;15.50;;;13.20;99.90;;;;;;5045734;28;20134;-73
2022/10/14 11:01:20;;;;;;;56.63;15.45;;;13.30;99.90;;;;;;5049795;28;20291;-74
2022/10/14 11:04:26;;;;;;;50.55;14.32;;;13.30;99.90;;;;;;5052448;28;20040;-78
2022/10/14 11:13:00;;;;;;;57.13;17.02;;;13.40;99.90;;;;;;5052239;28;20098;-76
2022/10/14 11:15:43;;;;;;;61.15;16.55;;;13.40;99.90;;;;;;5047786;28;20036;-73
2022/10/14 11:18:32;;;;;;;57.15;17.75;;;13.50;99.90;;;;;;5042601;28;20052;-73
2022/10/14 11:21:09;;;;;;;55.88;17.08;;;13.50;99.90;;;;;;5048821;28;20040;-75
2022/10/14 11:23:55;;;;;;;51.83;18.90;;;13.60;99.90;;;;;;5034799;28;20049;-73
2022/10/14 11:26:45;;;;;;;51.35;18.02;;;13.60;99.90;;;;;;5044167;28;20486;-74
2022/10/14 11:29:29;;;;;;;53.33;17.60;;;13.70;99.90;;;;;;5045896;28;20616;-75
2022/10/14 11:32:07;;;;;;;64.70;20.20;;;13.80;99.90;;;;;;5054649;28;20044;-73
2022/10/14 11:34:50;;;;;;;60.80;21.15;;;13.80;99.90;;;;;;5044774;28;20646;-78
2022/10/14 11:37:52;;;;;;;61.38;18.33;;;13.90;99.90;;;;;;5049632;28;20119;-75
2022/10/14 11:40:54;;;;;;;53.85;18.65;;;14.00;99.90;;;;;;5051689;28;20044;-72
2022/10/14 11:43:31;;;;;;;52.28;18.77;;;14.10;99.90;;;;;;5038791;28;20045;-72
2022/10/14 11:46:03;;;;;;;53.85;19.30;;;14.20;99.90;;;;;;5047489;28;20137;-78
2022/10/14 11:48:47;;;;;;;54.20;18.67;;;14.20;99.90;;;;;;5064049;28;20098;-73
2022/10/14 11:51:16;;;;;;;51.55;17.95;;;14.30;99.90;;;;;;5053417;28;20085;-74
2022/10/14 11:53:53;;;;;;;43.22;17.17;;;14.30;99.90;;;;;;5057607;28;20102;-75
2022/10/14 11:56:46;;;;;;;51.60;16.90;;;14.30;99.90;;;;;;5068723;28;20044;-73
2022/10/14 11:59:39;;;;;;;46.38;16.98;;;14.30;99.90;;;;;;5058638;28;20044;-74
2022/10/14 12:02:29;;;;;;;49.25;17.90;;;14.40;99.90;;;;;;5051974;28;20075;-75
2022/10/14 12:05:14;;;;;;;40.13;14.98;;;14.30;99.90;;;;;;5052389;28;20055;-76
2022/10/14 12:07:49;;;;;;;42.75;16.42;;;14.30;99.90;;;;;;5049435;28;20175;-72
2022/10/14 12:10:44;;;;;;;43.75;17.35;;;14.30;99.90;;;;;;5047956;28;20112;-71
2022/10/14 12:13:14;;;;;;;41.13;14.55;;;14.30;99.90;;;;;;5046808;28;20045;-72
2022/10/14 12:15:46;;;;;;;40.90;16.65;;;14.30;99.90;;;;;;5048937;28;20084;-72
2022/10/14 12:18:11;;;;;;;42.75;16.45;;;14.30;99.90;;;;;;5064201;28;20105;-73
2022/10/14 12:20:48;;;;;;;38.33;15.30;;;14.30;99.90;;;;;;5079281;28;20049;-72
2022/10/14 12:23:19;;;;;;;;;;;14.30;99.90;;;;;;5060149;28;20696;-72
2022/10/14 12:25:55;;;;;;;29.90;12.98;;;14.30;99.90;;;;;;5070753;28;19921;-73
2022/10/14 12:28:21;;;;;;;29.48;12.90;;;14.40;99.90;;;;;;5048774;28;20140;-73
2022/10/14 12:30:47;;;;;;;27.50;12.10;;;14.40;99.90;;;;;;5065141;28;20075;-74
2022/10/14 12:33:17;;;;;;;28.40;12.30;;;14.50;99.90;;;;;;5068186;28;20047;-74
2022/10/14 12:35:53;;;;;;;24.77;11.43;;;14.60;99.90;;;;;;5060927;28;20499;-72
2022/10/14 12:38:20;;;;;;;27.65;12.30;;;14.70;99.90;;;;;;5043310;28;20465;-73
2022/10/14 12:40:49;;;;;;;25.70;11.55;;;14.70;99.90;;;;;;5079370;28;20045;-70
2022/10/14 12:43:23;;;;;;;25.23;11.38;;;14.80;99.90;;;;;;5051625;28;20489;-75
2022/10/14 12:45:57;;;;;;;23.60;11.60;;;14.90;99.90;;;;;;5057119;28;20044;-75
2022/10/14 12:48:25;;;;;;;26.58;11.95;;;14.90;99.90;;;;;;5073187;28;20045;-73
2022/10/14 12:51:26;;;;;;;24.73;11.65;;;14.90;99.90;;;;;;5078577;28;20045;-73
2022/10/14 12:54:13;;;;;;;23.17;10.43;;;14.90;99.90;;;;;;5040482;28;20045;-72
2022/10/14 12:56:51;;;;;;;24.85;12.00;;;14.90;99.90;;;;;;5064814;28;20040;-74